.
WxDataArchive / Data Records for 2009-09-29
2009-09-28 September 2009 2009-09-30

Data Records for Tuesday, 29 September 2009

Time	Temp	Chill	HIndex	Humid	Dewpt	 Wind 	HiWind	WindDir	Rain 	Barom 
-----	----	-----	------	-----	-----	------	------	-------	-----	----- 
00:00	52.2	52.2	52.2	81	46.5	2	6	270	0.00	29.668 
00:05	52.2	52.2	52.2	81	46.5	2	4	292	0.00	29.668 
00:10	52.2	52.2	52.2	81	46.5	2	5	270	0.00	29.668 
00:15	52.2	52.2	52.2	81	46.5	2	5	248	0.00	29.664 
00:20	52.3	52.3	52.3	80	46.3	3	7	270	0.00	29.664 
00:25	52.5	52.5	52.5	80	46.5	3	6	270	0.00	29.664 
00:30	52.5	52.5	52.5	79	46.2	2	9	270	0.00	29.660 
00:35	52.6	52.6	52.6	79	46.3	2	9	292	0.00	29.660 
00:40	52.6	52.6	52.6	79	46.3	2	5	270	0.00	29.660 
00:45	52.6	52.6	52.6	78	45.9	2	6	248	0.00	29.657 
00:50	52.8	52.8	52.8	78	46.1	2	6	270	0.00	29.657 
00:55	52.8	52.8	52.8	77	45.8	3	8	270	0.00	29.657 
01:00	53.1	53.1	53.1	77	46.1	4	7	270	0.00	29.657 
01:05	53.1	53.1	53.1	77	46.1	3	6	270	0.00	29.657 
01:10	52.9	52.9	52.9	77	45.9	2	7	270	0.00	29.657 
01:15	52.9	52.9	52.9	78	46.2	3	6	270	0.00	29.665 
01:20	52.8	52.8	52.8	78	46.1	3	8	270	0.00	29.665 
01:25	52.8	52.8	52.8	79	46.5	3	6	270	0.00	29.665 
01:30	52.3	52.3	52.3	82	47.0	2	4	225	0.00	29.666 
01:35	51.7	51.7	51.7	85	47.3	2	6	270	0.00	29.666 
01:40	51.3	51.3	51.3	87	47.6	2	4	270	0.00	29.666 
01:45	51.0	51.0	51.0	87	47.3	2	5	270	0.00	29.667 
01:50	51.1	51.1	51.1	87	47.4	2	4	270	0.00	29.667 
01:55	51.1	51.1	51.1	87	47.4	1	4	248	0.00	29.667 
02:00	51.0	51.0	51.0	88	47.6	1	4	248	0.00	29.670 
02:05	50.7	50.7	50.7	89	47.6	1	4	270	0.01	29.670 
02:10	50.5	50.5	50.5	89	47.4	2	5	270	0.00	29.670 
02:15	50.4	50.4	50.4	90	47.6	1	4	270	0.00	29.676 
02:20	50.4	50.4	50.4	90	47.6	1	3	315	0.00	29.676 
02:25	50.4	50.4	50.4	90	47.6	1	3	315	0.00	29.676 
02:30	50.4	50.4	50.4	90	47.6	0	2	315	0.00	29.681 
02:35	50.4	50.4	50.4	90	47.6	1	5	270	0.01	29.681 
02:40	50.2	50.2	50.2	91	47.7	1	4	270	0.00	29.681 
02:45	50.1	50.1	50.1	91	47.6	1	3	315	0.01	29.684 
02:50	50.1	50.1	50.1	92	47.9	1	3	248	0.00	29.684 
02:55	49.9	49.9	49.9	92	47.7	2	5	270	0.00	29.684 
03:00	49.8	49.8	49.8	91	47.3	2	4	315	0.00	29.688 
03:05	49.6	49.6	49.6	90	46.8	3	7	270	0.00	29.688 
03:10	49.6	49.6	49.6	90	46.8	1	4	315	0.00	29.688 
03:15	49.6	49.6	49.6	90	46.8	3	5	270	0.00	29.690 
03:20	49.6	49.6	49.6	89	46.5	3	6	270	0.00	29.690 
03:25	49.6	49.6	49.6	88	46.2	3	6	315	0.00	29.690 
03:30	49.6	49.6	49.6	88	46.2	2	5	270	0.00	29.693 
03:35	49.6	49.6	49.6	87	45.9	2	6	270	0.00	29.693 
03:40	49.6	49.6	49.6	87	45.9	2	6	270	0.00	29.693 
03:45	49.6	49.6	49.6	86	45.6	2	5	270	0.00	29.698 
03:50	49.8	49.8	49.8	85	45.5	2	6	270	0.00	29.698 
03:55	49.8	49.8	49.8	84	45.2	2	4	270	0.00	29.698 
04:00	49.8	49.8	49.8	83	44.8	2	6	315	0.00	29.698 
04:05	49.9	49.9	49.9	82	44.6	3	6	270	0.00	29.698 
04:10	49.9	49.9	49.9	82	44.6	3	9	270	0.00	29.698 
04:15	49.8	49.8	49.8	82	44.5	2	7	292	0.00	29.698 
04:20	49.6	49.6	49.6	83	44.7	1	5	292	0.00	29.698 
04:25	49.6	49.6	49.6	83	44.7	1	4	315	0.00	29.698 
04:30	49.5	49.5	49.5	83	44.6	2	5	270	0.00	29.701 
04:35	49.6	49.6	49.6	82	44.3	3	6	315	0.00	29.701 
04:40	49.6	49.6	49.6	82	44.3	3	7	270	0.00	29.701 
04:45	49.6	49.6	49.6	82	44.3	2	5	270	0.00	29.699 
04:50	49.6	49.6	49.6	82	44.3	3	10	270	0.00	29.699 
04:55	49.6	49.6	49.6	82	44.3	2	5	270	0.00	29.699 
05:00	49.6	49.6	49.6	82	44.3	2	6	292	0.00	29.706 
05:05	49.6	49.6	49.6	82	44.3	2	7	270	0.00	29.706 
05:10	49.6	49.6	49.6	81	44.0	3	6	270	0.00	29.706 
05:15	49.8	48.6	49.8	81	44.2	4	9	270	0.00	29.714 
05:20	49.8	49.8	49.8	80	43.9	3	7	292	0.00	29.714 
05:25	49.8	49.8	49.8	80	43.9	3	6	270	0.00	29.714 
05:30	49.8	49.8	49.8	80	43.9	2	6	270	0.00	29.716 
05:35	49.8	49.8	49.8	80	43.9	2	6	270	0.00	29.716 
05:40	49.8	49.8	49.8	80	43.9	3	7	270	0.00	29.716 
05:45	49.8	48.6	49.8	80	43.9	4	7	270	0.00	29.718 
05:50	49.6	48.4	49.6	80	43.7	4	7	270	0.00	29.718 
05:55	49.6	49.6	49.6	81	44.0	2	7	338	0.00	29.718 
06:00	49.5	49.5	49.5	81	43.9	2	5	270	0.00	29.723 
06:05	49.5	49.5	49.5	81	43.9	3	9	270	0.00	29.723 
06:10	49.5	48.3	49.5	81	43.9	4	9	270	0.00	29.723 
06:15	49.5	49.5	49.5	81	43.9	3	7	270	0.00	29.730 
06:20	49.4	49.4	49.4	82	44.1	3	6	270	0.00	29.730 
06:25	49.4	48.2	49.4	82	44.1	4	8	270	0.00	29.730 
06:30	49.4	49.4	49.4	82	44.1	2	5	270	0.00	29.736 
06:35	49.4	49.4	49.4	82	44.1	3	6	270	0.00	29.736 
06:40	49.4	49.4	49.4	82	44.1	3	7	270	0.00	29.736 
06:45	49.4	49.4	49.4	83	44.5	3	6	270	0.00	29.746 
06:50	49.4	49.4	49.4	83	44.5	2	6	270	0.00	29.746 
06:55	49.2	47.9	49.2	83	44.3	4	7	270	0.00	29.746 
07:00	49.2	49.2	49.2	84	44.6	3	7	270	0.00	29.759 
07:05	49.2	49.2	49.2	84	44.6	3	6	270	0.00	29.759 
07:10	49.2	49.2	49.2	84	44.6	3	6	270	0.00	29.759 
07:15	49.2	49.2	49.2	84	44.6	3	7	270	0.00	29.763 
07:20	49.2	49.2	49.2	85	44.9	3	5	270	0.00	29.763 
07:25	49.1	49.1	49.1	86	45.1	2	5	270	0.00	29.763 
07:30	49.1	49.1	49.1	86	45.1	3	6	270	0.00	29.772 
07:35	49.1	49.1	49.1	86	45.1	3	6	270	0.00	29.772 
07:40	49.2	49.2	49.2	87	45.5	3	6	270	0.00	29.772 
07:45	49.2	49.2	49.2	87	45.5	2	5	315	0.00	29.778 
07:50	49.2	47.9	49.2	87	45.5	4	9	270	0.00	29.778 
07:55	49.4	49.4	49.4	87	45.7	3	5	270	0.00	29.778 
08:00	49.4	49.4	49.4	87	45.7	3	7	270	0.00	29.786 
08:05	49.5	49.5	49.5	87	45.8	2	5	270	0.00	29.786 
08:10	49.5	49.5	49.5	87	45.8	2	5	270	0.00	29.786 
08:15	49.6	49.6	49.6	86	45.6	2	4	315	0.00	29.794 
08:20	49.8	49.8	49.8	86	45.8	2	4	270	0.00	29.794 
08:25	49.8	49.8	49.8	86	45.8	2	5	292	0.00	29.794 
08:30	49.9	49.9	49.9	86	45.9	3	7	270	0.00	29.803 
08:35	50.1	50.1	50.1	86	46.1	2	6	315	0.00	29.803 
08:40	50.1	50.1	50.1	86	46.1	3	6	270	0.00	29.803 
08:45	50.2	50.2	50.2	86	46.2	2	4	270	0.00	29.808 
08:50	50.4	50.4	50.4	86	46.4	3	6	270	0.00	29.808 
08:55	50.4	50.4	50.4	86	46.4	3	6	270	0.00	29.808 
09:00	50.5	50.5	50.5	86	46.5	2	5	270	0.00	29.810 
09:05	50.5	50.5	50.5	86	46.5	3	5	270	0.00	29.810 
09:10	50.7	50.7	50.7	86	46.7	3	6	270	0.00	29.810 
09:15	50.7	50.7	50.7	85	46.4	3	5	270	0.00	29.814 
09:20	50.8	50.8	50.8	85	46.5	3	7	270	0.00	29.814 
09:25	51.0	51.0	51.0	85	46.7	3	5	270	0.00	29.814 
09:30	51.0	51.0	51.0	85	46.7	3	6	270	0.00	29.823 
09:35	51.1	51.1	51.1	85	46.7	3	7	270	0.00	29.823 
09:40	51.1	51.1	51.1	85	46.7	3	6	270	0.00	29.823 
09:45	51.3	51.3	51.3	85	46.9	3	8	270	0.00	29.826 
09:50	51.4	51.4	51.4	85	47.0	3	6	270	0.00	29.826 
09:55	51.6	51.6	51.6	85	47.2	2	6	270	0.00	29.826 
10:00	51.6	51.6	51.6	85	47.2	3	6	270	0.00	29.836 
10:05	51.7	51.7	51.7	85	47.3	3	6	270	0.00	29.836 
10:10	51.9	51.9	51.9	86	47.8	3	6	270	0.00	29.836 
10:15	52.0	52.0	52.0	85	47.6	3	7	292	0.00	29.840 
10:20	52.2	52.2	52.2	85	47.8	3	6	270	0.00	29.840 
10:25	52.2	52.2	52.2	85	47.8	3	6	292	0.00	29.840 
10:30	52.3	52.3	52.3	85	47.9	3	6	270	0.00	29.841 
10:35	52.3	52.3	52.3	85	47.9	3	5	270	0.00	29.841 
10:40	52.3	52.3	52.3	85	47.9	3	10	315	0.00	29.841 
10:45	52.5	52.5	52.5	86	48.4	2	5	270	0.00	29.846 
10:50	52.6	52.6	52.6	85	48.2	3	7	270	0.00	29.846 
10:55	52.8	52.8	52.8	85	48.4	3	7	270	0.00	29.846 
11:00	53.1	53.1	53.1	85	48.7	3	5	270	0.00	29.851 
11:05	53.1	53.1	53.1	84	48.4	3	8	270	0.00	29.851 
11:10	53.3	53.3	53.3	84	48.6	2	5	270	0.00	29.851 
11:15	53.6	53.6	53.6	84	48.9	3	7	270	0.00	29.857 
11:20	53.8	53.8	53.8	83	48.8	2	5	270	0.00	29.857 
11:25	54.1	54.1	54.1	82	48.7	3	7	270	0.00	29.857 
11:30	53.9	53.9	53.9	82	48.5	4	7	270	0.00	29.865 
11:35	54.1	54.1	54.1	84	49.4	2	5	315	0.00	29.865 
11:40	54.4	54.4	54.4	84	49.7	3	7	270	0.00	29.865 
11:45	54.4	54.4	54.4	84	49.7	3	6	270	0.00	29.871 
11:50	54.4	54.4	54.4	84	49.7	4	9	270	0.00	29.871 
11:55	54.2	54.2	54.2	83	49.1	3	9	292	0.00	29.871 
12:00	54.4	54.4	54.4	84	49.7	3	5	270	0.00	29.874 
12:05	54.7	54.7	54.7	83	49.6	2	5	270	0.00	29.874 
12:10	54.8	54.8	54.8	83	49.7	3	5	292	0.00	29.874 
12:15	54.8	54.8	54.8	83	49.7	3	7	270	0.00	29.872 
12:20	55.0	55.0	55.0	83	49.9	2	6	315	0.00	29.872 
12:25	55.1	55.1	55.1	82	49.7	3	10	315	0.00	29.872 
12:30	55.3	55.3	55.3	82	49.9	2	4	292	0.00	29.872 
12:35	55.7	55.7	55.7	80	49.6	3	7	270	0.00	29.872 
12:40	56.0	56.0	56.0	79	49.6	2	5	270	0.00	29.872 
12:45	55.9	55.9	55.9	79	49.5	3	6	292	0.00	29.875 
12:50	55.9	55.9	55.9	78	49.1	3	5	315	0.00	29.875 
12:55	55.9	55.9	55.9	78	49.1	3	7	270	0.00	29.875 
13:00	56.0	56.0	56.0	76	48.5	4	10	270	0.00	29.881 
13:05	56.3	56.3	56.3	76	48.8	3	9	270	0.00	29.881 
13:10	56.6	56.6	56.6	76	49.1	3	7	270	0.00	29.881 
13:15	56.5	56.5	56.5	76	49.0	3	7	315	0.00	29.885 
13:20	56.9	56.9	56.9	75	49.1	2	6	292	0.00	29.885 
13:25	56.5	56.5	56.5	79	50.1	2	5	315	0.00	29.885 
13:30	55.7	55.7	55.7	80	49.6	2	8	315	0.00	29.888 
13:35	55.6	55.6	55.6	81	49.9	3	6	315	0.00	29.888 
13:40	56.2	56.2	56.2	81	50.4	1	3	315	0.00	29.888 
13:45	56.0	56.0	56.0	81	50.3	2	4	315	0.00	29.889 
13:50	55.4	55.4	55.4	82	50.0	3	6	315	0.00	29.889 
13:55	55.7	55.7	55.7	83	50.6	2	7	270	0.00	29.889 
14:00	55.6	55.6	55.6	82	50.2	3	6	315	0.00	29.890 
14:05	55.4	55.4	55.4	84	50.6	2	5	292	0.00	29.890 
14:10	55.9	55.9	55.9	83	50.8	2	6	315	0.00	29.890 
14:15	56.9	56.9	56.9	79	50.5	3	7	315	0.00	29.889 
14:20	57.0	57.0	57.0	77	49.9	3	6	315	0.00	29.889 
14:25	56.5	56.5	56.5	78	49.7	3	10	292	0.00	29.889 
14:30	56.0	56.0	56.0	77	48.9	4	10	315	0.00	29.890 
14:35	56.0	56.0	56.0	77	48.9	3	6	292	0.00	29.890 
14:40	56.6	56.6	56.6	77	49.5	2	5	315	0.00	29.890 
14:45	57.3	57.3	57.3	75	49.4	3	8	292	0.00	29.890 
14:50	57.3	57.3	57.3	75	49.4	3	9	315	0.00	29.890 
14:55	57.0	57.0	57.0	75	49.2	3	6	315	0.00	29.890 
15:00	56.9	56.9	56.9	77	49.8	3	7	270	0.00	29.895 
15:05	57.2	57.2	57.2	77	50.1	3	10	315	0.00	29.895 
15:10	57.6	57.6	57.6	75	49.7	3	6	315	0.00	29.895 
15:15	58.0	58.0	58.0	73	49.4	4	12	270	0.00	29.891 
15:20	58.3	58.3	58.3	73	49.7	3	7	315	0.00	29.891 
15:25	58.1	58.1	58.1	72	49.1	4	10	270	0.00	29.891 
15:30	57.6	57.6	57.6	73	49.0	3	6	315	0.00	29.896 
15:35	57.2	57.2	57.2	74	49.0	3	13	315	0.00	29.896 
15:40	56.7	56.7	56.7	74	48.5	3	10	315	0.00	29.896 
15:45	56.9	56.9	56.9	76	49.4	3	9	315	0.00	29.906 
15:50	56.9	56.9	56.9	74	48.7	3	5	315	0.00	29.906 
15:55	57.0	57.0	57.0	75	49.2	2	4	315	0.00	29.906 
16:00	57.0	57.0	57.0	75	49.2	2	5	315	0.00	29.908 
16:05	57.0	57.0	57.0	75	49.2	2	5	292	0.00	29.908 
16:10	57.3	57.3	57.3	73	48.7	2	7	315	0.00	29.908 
16:15	57.2	57.2	57.2	74	49.0	2	5	270	0.00	29.907 
16:20	57.0	57.0	57.0	75	49.2	2	6	270	0.00	29.907 
16:25	56.6	56.6	56.6	77	49.5	3	6	315	0.00	29.907 
16:30	56.6	56.6	56.6	76	49.1	3	7	315	0.00	29.915 
16:35	56.7	56.7	56.7	75	48.9	2	5	315	0.00	29.915 
16:40	56.7	56.7	56.7	76	49.2	2	4	315	0.00	29.915 
16:45	56.7	56.7	56.7	75	48.9	3	8	315	0.00	29.919 
16:50	56.7	56.7	56.7	76	49.2	3	6	315	0.00	29.919 
16:55	56.6	56.6	56.6	76	49.1	2	6	292	0.00	29.919 
17:00	56.5	56.5	56.5	76	49.0	2	7	292	0.00	29.922 
17:05	56.5	56.5	56.5	75	48.7	3	7	292	0.00	29.922 
17:10	56.5	56.5	56.5	77	49.4	2	5	292	0.00	29.922 
17:15	56.5	56.5	56.5	75	48.7	3	9	270	0.00	29.929 
17:20	56.5	56.5	56.5	76	49.0	3	6	315	0.00	29.929 
17:25	56.6	56.6	56.6	77	49.5	2	4	315	0.00	29.929 
17:30	56.6	56.6	56.6	76	49.1	3	7	270	0.00	29.928 
17:35	56.3	56.3	56.3	77	49.2	3	7	270	0.00	29.928 
17:40	55.9	55.9	55.9	81	50.2	3	6	315	0.00	29.928 
17:45	55.3	55.3	55.3	83	50.2	2	5	292	0.00	29.939 
17:50	55.1	55.1	55.1	83	50.0	2	6	292	0.00	29.939 
17:55	55.1	55.1	55.1	83	50.0	1	4	315	0.00	29.939 
18:00	55.3	55.3	55.3	82	49.9	2	5	315	0.00	29.946 
18:05	55.4	55.4	55.4	82	50.0	1	4	315	0.00	29.946 
18:10	55.6	55.6	55.6	81	49.9	2	4	270	0.00	29.946 
18:15	55.7	55.7	55.7	81	50.0	1	5	270	0.00	29.947 
18:20	55.7	55.7	55.7	80	49.6	1	3	315	0.00	29.947 
18:25	55.9	55.9	55.9	80	49.8	1	5	338	0.00	29.947 
18:30	55.9	55.9	55.9	80	49.8	1	5	270	0.00	29.954 
18:35	55.7	55.7	55.7	79	49.3	2	4	270	0.00	29.954 
18:40	55.6	55.6	55.6	79	49.2	1	5	270	0.00	29.954 
18:45	55.4	55.4	55.4	78	48.7	1	4	292	0.00	29.956 
18:50	55.4	55.4	55.4	78	48.7	2	6	270	0.00	29.956 
18:55	55.1	55.1	55.1	77	48.0	3	5	315	0.00	29.956 
19:00	55.1	55.1	55.1	77	48.0	2	6	292	0.00	29.968 
19:05	55.0	55.0	55.0	77	47.9	2	6	292	0.00	29.968 
19:10	54.8	54.8	54.8	76	47.4	1	3	315	0.00	29.968 
19:15	54.8	54.8	54.8	76	47.4	2	5	315	0.00	29.971 
19:20	54.7	54.7	54.7	75	46.9	1	4	292	0.00	29.971 
19:25	54.5	54.5	54.5	75	46.7	0	4	315	0.00	29.971 
19:30	54.4	54.4	54.4	75	46.6	2	4	292	0.00	29.975 
19:35	54.4	54.4	54.4	76	47.0	1	6	270	0.00	29.975 
19:40	54.2	54.2	54.2	76	46.8	1	2	270	0.00	29.975 
19:45	54.2	54.2	54.2	77	47.1	1	4	315	0.00	29.986 
19:50	54.2	54.2	54.2	76	46.8	1	3	270	0.00	29.986 
19:55	54.2	54.2	54.2	76	46.8	2	6	292	0.00	29.986 
20:00	54.1	54.1	54.1	76	46.7	2	5	292	0.00	29.989 
20:05	54.1	54.1	54.1	77	47.0	2	4	315	0.00	29.989 
20:10	53.9	53.9	53.9	77	46.9	1	4	315	0.00	29.989 
20:15	53.8	53.8	53.8	78	47.1	1	4	292	0.00	29.999 
20:20	53.8	53.8	53.8	78	47.1	1	3	315	0.00	29.999 
20:25	53.6	53.6	53.6	77	46.6	2	4	338	0.00	29.999 
20:30	53.5	53.5	53.5	78	46.8	1	5	315	0.00	30.001 
20:35	53.5	53.5	53.5	78	46.8	1	3	315	0.00	30.001 
20:40	53.3	53.3	53.3	78	46.6	2	5	292	0.00	30.001 
20:45	53.3	53.3	53.3	78	46.6	1	4	292	0.00	30.003 
20:50	53.2	53.2	53.2	78	46.5	2	4	292	0.00	30.003 
20:55	53.1	53.1	53.1	78	46.4	1	3	315	0.00	30.003 
21:00	53.1	53.1	53.1	79	46.8	2	4	315	0.00	30.003 
21:05	52.9	52.9	52.9	79	46.6	2	7	292	0.00	30.003 
21:10	52.8	52.8	52.8	80	46.8	1	4	315	0.00	30.003 
21:15	52.8	52.8	52.8	80	46.8	2	4	292	0.00	30.009 
21:20	52.6	52.6	52.6	80	46.6	1	5	270	0.00	30.009 
21:25	52.6	52.6	52.6	80	46.6	1	6	292	0.00	30.009 
21:30	52.5	52.5	52.5	80	46.5	1	3	315	0.00	30.016 
21:35	52.3	52.3	52.3	81	46.6	1	2	315	0.00	30.016 
21:40	52.2	52.2	52.2	80	46.2	2	4	315	0.00	30.016 
21:45	52.0	52.0	52.0	80	46.0	2	5	315	0.00	30.019 
21:50	51.9	51.9	51.9	80	45.9	1	3	292	0.00	30.019 
21:55	51.7	51.7	51.7	79	45.4	2	5	270	0.00	30.019 
22:00	51.6	51.6	51.6	78	45.0	1	4	270	0.00	30.022 
22:05	51.6	51.6	51.6	79	45.3	2	4	315	0.00	30.022 
22:10	51.4	51.4	51.4	78	44.8	1	4	315	0.00	30.022 
22:15	51.3	51.3	51.3	79	45.0	0	2	315	0.00	30.027 
22:20	51.3	51.3	51.3	78	44.7	1	4	270	0.00	30.027 
22:25	51.3	51.3	51.3	78	44.7	1	4	315	0.00	30.027 
22:30	51.1	51.1	51.1	78	44.5	2	5	315	0.00	30.029 
22:35	51.1	51.1	51.1	78	44.5	1	3	315	0.00	30.029 
22:40	51.0	51.0	51.0	79	44.7	0	4	315	0.00	30.029 
22:45	51.0	51.0	51.0	79	44.7	0	3	270	0.00	30.029 
22:50	50.8	50.8	50.8	80	44.9	1	4	270	0.00	30.029 
22:55	50.7	50.7	50.7	80	44.8	1	3	315	0.00	30.029 
23:00	50.7	50.7	50.7	80	44.8	0	3	315	0.00	30.030 
23:05	50.5	50.5	50.5	80	44.6	1	4	248	0.00	30.030 
23:10	50.4	50.4	50.4	80	44.5	0	3	0	0.00	30.030 
23:15	50.4	50.4	50.4	81	44.8	1	3	270	0.00	30.033 
23:20	50.2	50.2	50.2	81	44.6	0	2	292	0.00	30.033 
23:25	50.1	50.1	50.1	81	44.5	0	1	292	0.00	30.033 
23:30	49.9	49.9	49.9	82	44.6	0	1	292	0.00	30.035 
23:35	49.8	49.8	49.8	82	44.5	0	1	292	0.00	30.035 
23:40	49.6	49.6	49.6	83	44.7	0	1	292	0.00	30.035 
23:45	49.4	49.4	49.4	83	44.5	0	1	292	0.00	30.035 
23:50	49.2	49.2	49.2	83	44.3	0	1	292	0.00	30.035 
23:55	49.1	49.1	49.1	84	44.5	0	1	292	0.00	30.035 

CoCoRaHS
IN-AL-39
A2 Web Hosting
Creative Commons License
GoDaddy
search engine by freefind advanced

loaded 2018-11-20 08:19:30 • last modified 2010-11-18 10:43:29
Privacy PolicyDisclaimer
• wx.awcolley.com is powered by PmWiki v.2002016 •
• all content (unless otherwise noted) © 2018 A W Colley